sensor_id;sensor_type;location;lat;lon;timestamp;temperature;humidity
56771;DHT22;42641;59.794;17.616;2023-08-06T00:01:22;15.20;99.90
56771;DHT22;42641;59.794;17.616;2023-08-06T00:03:49;15.20;99.90
56771;DHT22;42641;59.794;17.616;2023-08-06T00:06:15;15.20;99.90
56771;DHT22;42641;59.794;17.616;2023-08-06T00:08:41;15.10;99.90
56771;DHT22;42641;59.794;17.616;2023-08-06T00:11:08;15.10;99.90
56771;DHT22;42641;59.794;17.616;2023-08-06T00:13:34;15.00;99.90
56771;DHT22;42641;59.794;17.616;2023-08-06T00:16:13;15.00;99.90
56771;DHT22;42641;59.794;17.616;2023-08-06T00:18:40;15.00;99.90
56771;DHT22;42641;59.794;17.616;2023-08-06T00:21:07;14.90;99.90
56771;DHT22;42641;59.794;17.616;2023-08-06T00:23:33;14.90;99.90
56771;DHT22;42641;59.794;17.616;2023-08-06T00:25:59;15.00;99.90
56771;DHT22;42641;59.794;17.616;2023-08-06T00:28:26;14.90;99.90
56771;DHT22;42641;59.794;17.616;2023-08-06T00:30:56;15.00;99.90
56771;DHT22;42641;59.794;17.616;2023-08-06T00:33:23;15.00;99.90
56771;DHT22;42641;59.794;17.616;2023-08-06T00:35:50;15.00;99.90
56771;DHT22;42641;59.794;17.616;2023-08-06T00:38:17;15.00;99.90
56771;DHT22;42641;59.794;17.616;2023-08-06T00:40:43;14.90;99.90
56771;DHT22;42641;59.794;17.616;2023-08-06T00:43:10;15.00;99.90
56771;DHT22;42641;59.794;17.616;2023-08-06T00:45:37;15.00;99.90
56771;DHT22;42641;59.794;17.616;2023-08-06T00:48:05;15.00;99.90
56771;DHT22;42641;59.794;17.616;2023-08-06T00:50:32;15.00;99.90
56771;DHT22;42641;59.794;17.616;2023-08-06T00:52:59;14.90;99.90
56771;DHT22;42641;59.794;17.616;2023-08-06T00:55:26;14.90;99.90
56771;DHT22;42641;59.794;17.616;2023-08-06T00:57:53;14.90;99.90
56771;DHT22;42641;59.794;17.616;2023-08-06T01:00:22;14.90;99.90
56771;DHT22;42641;59.794;17.616;2023-08-06T01:02:50;14.90;99.90
56771;DHT22;42641;59.794;17.616;2023-08-06T01:05:16;14.90;99.90
56771;DHT22;42641;59.794;17.616;2023-08-06T01:11:07;14.70;99.90
56771;DHT22;42641;59.794;17.616;2023-08-06T01:13:47;14.70;99.90
56771;DHT22;42641;59.794;17.616;2023-08-06T01:16:20;14.70;99.90
56771;DHT22;42641;59.794;17.616;2023-08-06T01:18:47;14.70;99.90
56771;DHT22;42641;59.794;17.616;2023-08-06T01:21:16;14.70;99.90
56771;DHT22;42641;59.794;17.616;2023-08-06T01:23:43;14.70;99.90
56771;DHT22;42641;59.794;17.616;2023-08-06T01:26:29;14.70;99.90
56771;DHT22;42641;59.794;17.616;2023-08-06T01:29:06;14.70;99.90
56771;DHT22;42641;59.794;17.616;2023-08-06T01:31:38;14.70;99.90
56771;DHT22;42641;59.794;17.616;2023-08-06T01:34:09;14.70;99.90
56771;DHT22;42641;59.794;17.616;2023-08-06T01:36:37;14.70;99.90
56771;DHT22;42641;59.794;17.616;2023-08-06T01:39:05;14.70;99.90
56771;DHT22;42641;59.794;17.616;2023-08-06T01:41:31;14.70;99.90
56771;DHT22;42641;59.794;17.616;2023-08-06T01:43:58;14.60;99.90
56771;DHT22;42641;59.794;17.616;2023-08-06T01:46:24;14.60;99.90
56771;DHT22;42641;59.794;17.616;2023-08-06T01:48:51;14.60;99.90
56771;DHT22;42641;59.794;17.616;2023-08-06T01:51:17;14.60;99.90
56771;DHT22;42641;59.794;17.616;2023-08-06T01:53:44;14.60;99.90
56771;DHT22;42641;59.794;17.616;2023-08-06T01:56:10;14.60;99.90
56771;DHT22;42641;59.794;17.616;2023-08-06T01:58:37;14.60;99.90
56771;DHT22;42641;59.794;17.616;2023-08-06T02:01:03;14.60;99.90
56771;DHT22;42641;59.794;17.616;2023-08-06T02:03:30;14.50;99.90
56771;DHT22;42641;59.794;17.616;2023-08-06T02:05:56;14.50;99.90
56771;DHT22;42641;59.794;17.616;2023-08-06T02:08:23;14.40;99.90
56771;DHT22;42641;59.794;17.616;2023-08-06T02:10:49;14.40;99.90
56771;DHT22;42641;59.794;17.616;2023-08-06T02:13:15;14.40;99.90
56771;DHT22;42641;59.794;17.616;2023-08-06T02:15:43;14.40;99.90
56771;DHT22;42641;59.794;17.616;2023-08-06T02:18:10;14.30;99.90
56771;DHT22;42641;59.794;17.616;2023-08-06T02:20:36;14.30;99.90
56771;DHT22;42641;59.794;17.616;2023-08-06T02:23:03;14.30;99.90
56771;DHT22;42641;59.794;17.616;2023-08-06T02:25:29;14.20;99.90
56771;DHT22;42641;59.794;17.616;2023-08-06T02:27:56;14.20;99.90
56771;DHT22;42641;59.794;17.616;2023-08-06T02:30:22;14.20;99.90
56771;DHT22;42641;59.794;17.616;2023-08-06T02:32:48;14.20;99.90
56771;DHT22;42641;59.794;17.616;2023-08-06T02:35:15;14.20;99.90
56771;DHT22;42641;59.794;17.616;2023-08-06T02:37:41;14.30;99.90
56771;DHT22;42641;59.794;17.616;2023-08-06T02:40:08;14.30;99.90
56771;DHT22;42641;59.794;17.616;2023-08-06T02:42:35;14.20;99.90
56771;DHT22;42641;59.794;17.616;2023-08-06T02:45:02;14.20;99.90
56771;DHT22;42641;59.794;17.616;2023-08-06T02:47:29;14.20;99.90
56771;DHT22;42641;59.794;17.616;2023-08-06T02:49:55;14.20;99.90
56771;DHT22;42641;59.794;17.616;2023-08-06T02:52:21;14.10;99.90
56771;DHT22;42641;59.794;17.616;2023-08-06T02:54:48;14.10;99.90
56771;DHT22;42641;59.794;17.616;2023-08-06T02:57:15;14.10;99.90
56771;DHT22;42641;59.794;17.616;2023-08-06T02:59:42;14.10;99.90
56771;DHT22;42641;59.794;17.616;2023-08-06T03:02:18;14.00;99.90
56771;DHT22;42641;59.794;17.616;2023-08-06T03:05:08;14.00;99.90
56771;DHT22;42641;59.794;17.616;2023-08-06T03:07:38;14.00;99.90
56771;DHT22;42641;59.794;17.616;2023-08-06T03:10:14;14.00;99.90
56771;DHT22;42641;59.794;17.616;2023-08-06T03:12:43;14.00;99.90
56771;DHT22;42641;59.794;17.616;2023-08-06T03:15:09;14.00;99.90
56771;DHT22;42641;59.794;17.616;2023-08-06T03:17:36;14.00;99.90
56771;DHT22;42641;59.794;17.616;2023-08-06T03:20:05;14.00;99.90
56771;DHT22;42641;59.794;17.616;2023-08-06T03:22:33;14.00;99.90
56771;DHT22;42641;59.794;17.616;2023-08-06T03:24:59;14.00;99.90
56771;DHT22;42641;59.794;17.616;2023-08-06T03:27:27;14.00;99.90
56771;DHT22;42641;59.794;17.616;2023-08-06T03:29:53;14.00;99.90
56771;DHT22;42641;59.794;17.616;2023-08-06T03:32:22;14.10;99.90
56771;DHT22;42641;59.794;17.616;2023-08-06T03:34:49;14.10;99.90
56771;DHT22;42641;59.794;17.616;2023-08-06T03:37:16;14.10;99.90
56771;DHT22;42641;59.794;17.616;2023-08-06T03:39:43;14.10;99.90
56771;DHT22;42641;59.794;17.616;2023-08-06T03:42:09;14.10;99.90
56771;DHT22;42641;59.794;17.616;2023-08-06T03:44:35;14.20;99.90
56771;DHT22;42641;59.794;17.616;2023-08-06T03:47:02;14.20;99.90
56771;DHT22;42641;59.794;17.616;2023-08-06T03:49:28;14.30;99.90
56771;DHT22;42641;59.794;17.616;2023-08-06T03:51:55;14.30;99.90
56771;DHT22;42641;59.794;17.616;2023-08-06T03:54:21;14.30;99.90
56771;DHT22;42641;59.794;17.616;2023-08-06T03:56:48;14.30;99.90
56771;DHT22;42641;59.794;17.616;2023-08-06T03:59:16;14.30;99.90
56771;DHT22;42641;59.794;17.616;2023-08-06T04:01:42;14.40;99.90
56771;DHT22;42641;59.794;17.616;2023-08-06T04:04:09;14.40;99.90
56771;DHT22;42641;59.794;17.616;2023-08-06T04:06:35;14.40;99.90
56771;DHT22;42641;59.794;17.616;2023-08-06T04:09:02;14.50;99.90
56771;DHT22;42641;59.794;17.616;2023-08-06T04:11:29;14.50;99.90
56771;DHT22;42641;59.794;17.616;2023-08-06T04:13:55;14.60;99.90
56771;DHT22;42641;59.794;17.616;2023-08-06T04:16:24;14.60;99.90
56771;DHT22;42641;59.794;17.616;2023-08-06T04:18:52;14.80;99.90
56771;DHT22;42641;59.794;17.616;2023-08-06T04:21:19;14.90;99.90
56771;DHT22;42641;59.794;17.616;2023-08-06T04:23:47;15.00;99.90
56771;DHT22;42641;59.794;17.616;2023-08-06T04:26:14;15.20;99.90
56771;DHT22;42641;59.794;17.616;2023-08-06T04:28:40;15.20;99.90
56771;DHT22;42641;59.794;17.616;2023-08-06T04:31:08;15.30;99.90
56771;DHT22;42641;59.794;17.616;2023-08-06T04:33:35;15.40;99.90
56771;DHT22;42641;59.794;17.616;2023-08-06T04:36:07;15.40;99.90
56771;DHT22;42641;59.794;17.616;2023-08-06T04:38:34;15.50;99.90
56771;DHT22;42641;59.794;17.616;2023-08-06T04:41:02;15.60;99.90
56771;DHT22;42641;59.794;17.616;2023-08-06T04:43:32;15.70;99.90
56771;DHT22;42641;59.794;17.616;2023-08-06T04:45:58;15.80;99.90
56771;DHT22;42641;59.794;17.616;2023-08-06T04:48:25;15.80;99.90
56771;DHT22;42641;59.794;17.616;2023-08-06T04:50:51;15.90;99.90
56771;DHT22;42641;59.794;17.616;2023-08-06T04:53:18;15.90;99.90
56771;DHT22;42641;59.794;17.616;2023-08-06T04:55:44;16.00;99.90
56771;DHT22;42641;59.794;17.616;2023-08-06T04:58:12;16.10;99.90
56771;DHT22;42641;59.794;17.616;2023-08-06T05:00:39;16.20;99.90
56771;DHT22;42641;59.794;17.616;2023-08-06T05:03:06;16.20;99.90
56771;DHT22;42641;59.794;17.616;2023-08-06T05:05:32;16.30;99.90
56771;DHT22;42641;59.794;17.616;2023-08-06T05:07:59;16.30;99.90
56771;DHT22;42641;59.794;17.616;2023-08-06T05:10:25;16.30;99.90
56771;DHT22;42641;59.794;17.616;2023-08-06T05:12:52;16.40;99.90
56771;DHT22;42641;59.794;17.616;2023-08-06T05:15:19;16.50;99.90
56771;DHT22;42641;59.794;17.616;2023-08-06T05:17:46;16.50;99.90
56771;DHT22;42641;59.794;17.616;2023-08-06T05:20:12;16.50;99.90
56771;DHT22;42641;59.794;17.616;2023-08-06T05:22:39;16.60;99.90
56771;DHT22;42641;59.794;17.616;2023-08-06T05:25:05;16.60;99.90
56771;DHT22;42641;59.794;17.616;2023-08-06T05:27:32;16.60;99.90
56771;DHT22;42641;59.794;17.616;2023-08-06T05:29:59;16.60;99.90
56771;DHT22;42641;59.794;17.616;2023-08-06T05:32:25;16.70;99.90
56771;DHT22;42641;59.794;17.616;2023-08-06T05:34:52;16.80;99.90
56771;DHT22;42641;59.794;17.616;2023-08-06T05:37:18;16.90;99.90
56771;DHT22;42641;59.794;17.616;2023-08-06T05:39:45;17.00;99.90
56771;DHT22;42641;59.794;17.616;2023-08-06T05:42:11;17.10;99.90
56771;DHT22;42641;59.794;17.616;2023-08-06T05:44:38;17.10;99.90
56771;DHT22;42641;59.794;17.616;2023-08-06T05:47:05;17.20;99.90
56771;DHT22;42641;59.794;17.616;2023-08-06T05:49:34;17.30;99.90
56771;DHT22;42641;59.794;17.616;2023-08-06T05:52:00;17.40;99.90
56771;DHT22;42641;59.794;17.616;2023-08-06T05:54:27;17.50;99.90
56771;DHT22;42641;59.794;17.616;2023-08-06T05:56:53;17.50;99.90
56771;DHT22;42641;59.794;17.616;2023-08-06T05:59:19;17.60;99.90
56771;DHT22;42641;59.794;17.616;2023-08-06T06:01:46;17.70;99.90
56771;DHT22;42641;59.794;17.616;2023-08-06T06:04:12;17.80;99.90
56771;DHT22;42641;59.794;17.616;2023-08-06T06:06:39;17.90;99.90
56771;DHT22;42641;59.794;17.616;2023-08-06T06:09:05;17.90;99.90
56771;DHT22;42641;59.794;17.616;2023-08-06T06:11:32;18.00;99.90
56771;DHT22;42641;59.794;17.616;2023-08-06T06:13:58;18.10;99.90
56771;DHT22;42641;59.794;17.616;2023-08-06T06:16:25;18.20;99.90
56771;DHT22;42641;59.794;17.616;2023-08-06T06:18:51;18.10;99.90
56771;DHT22;42641;59.794;17.616;2023-08-06T06:21:18;18.10;99.90
56771;DHT22;42641;59.794;17.616;2023-08-06T06:23:44;18.10;99.90
56771;DHT22;42641;59.794;17.616;2023-08-06T06:26:12;18.20;99.90
56771;DHT22;42641;59.794;17.616;2023-08-06T06:28:39;18.30;99.90
56771;DHT22;42641;59.794;17.616;2023-08-06T06:31:05;18.30;99.90
56771;DHT22;42641;59.794;17.616;2023-08-06T06:33:32;18.30;99.90
56771;DHT22;42641;59.794;17.616;2023-08-06T06:35:58;18.40;99.90
56771;DHT22;42641;59.794;17.616;2023-08-06T06:38:25;18.50;99.90
56771;DHT22;42641;59.794;17.616;2023-08-06T06:40:58;18.50;99.90
56771;DHT22;42641;59.794;17.616;2023-08-06T06:43:25;18.50;99.90
56771;DHT22;42641;59.794;17.616;2023-08-06T06:46:01;18.50;99.90
56771;DHT22;42641;59.794;17.616;2023-08-06T06:48:29;18.60;99.90
56771;DHT22;42641;59.794;17.616;2023-08-06T06:50:56;18.70;99.90
56771;DHT22;42641;59.794;17.616;2023-08-06T06:53:23;18.70;99.90
56771;DHT22;42641;59.794;17.616;2023-08-06T06:56:01;18.80;99.90
56771;DHT22;42641;59.794;17.616;2023-08-06T06:58:28;18.80;99.90
56771;DHT22;42641;59.794;17.616;2023-08-06T07:00:55;18.90;99.90
56771;DHT22;42641;59.794;17.616;2023-08-06T07:03:21;18.90;99.90
56771;DHT22;42641;59.794;17.616;2023-08-06T07:05:48;19.00;99.90
56771;DHT22;42641;59.794;17.616;2023-08-06T07:08:15;19.10;99.90
56771;DHT22;42641;59.794;17.616;2023-08-06T07:10:42;19.10;99.90
56771;DHT22;42641;59.794;17.616;2023-08-06T07:13:09;19.10;99.90
56771;DHT22;42641;59.794;17.616;2023-08-06T07:15:36;19.20;99.90
56771;DHT22;42641;59.794;17.616;2023-08-06T07:18:02;19.20;99.90
56771;DHT22;42641;59.794;17.616;2023-08-06T07:20:29;19.20;99.90
56771;DHT22;42641;59.794;17.616;2023-08-06T07:22:58;19.30;99.90
56771;DHT22;42641;59.794;17.616;2023-08-06T07:25:25;19.30;99.90
56771;DHT22;42641;59.794;17.616;2023-08-06T07:27:51;19.40;99.90
56771;DHT22;42641;59.794;17.616;2023-08-06T07:30:18;19.50;99.90
56771;DHT22;42641;59.794;17.616;2023-08-06T07:32:44;19.60;99.90
56771;DHT22;42641;59.794;17.616;2023-08-06T07:35:11;19.60;99.90
56771;DHT22;42641;59.794;17.616;2023-08-06T07:37:39;19.60;99.90
56771;DHT22;42641;59.794;17.616;2023-08-06T07:40:06;19.60;99.90
56771;DHT22;42641;59.794;17.616;2023-08-06T07:42:32;19.70;99.90
56771;DHT22;42641;59.794;17.616;2023-08-06T07:44:59;19.70;99.90
56771;DHT22;42641;59.794;17.616;2023-08-06T07:47:25;19.70;99.90
56771;DHT22;42641;59.794;17.616;2023-08-06T07:49:52;19.70;99.90
56771;DHT22;42641;59.794;17.616;2023-08-06T07:52:18;19.80;99.90
56771;DHT22;42641;59.794;17.616;2023-08-06T07:54:45;19.90;99.90
56771;DHT22;42641;59.794;17.616;2023-08-06T07:57:11;19.90;99.90
56771;DHT22;42641;59.794;17.616;2023-08-06T07:59:38;20.10;99.90
56771;DHT22;42641;59.794;17.616;2023-08-06T08:02:05;20.10;99.90
56771;DHT22;42641;59.794;17.616;2023-08-06T08:04:31;20.20;99.90
56771;DHT22;42641;59.794;17.616;2023-08-06T08:06:58;20.30;99.90
56771;DHT22;42641;59.794;17.616;2023-08-06T08:09:24;20.30;99.90
56771;DHT22;42641;59.794;17.616;2023-08-06T08:11:51;20.40;99.90
56771;DHT22;42641;59.794;17.616;2023-08-06T08:14:20;20.50;99.90
56771;DHT22;42641;59.794;17.616;2023-08-06T08:16:46;20.50;99.90
56771;DHT22;42641;59.794;17.616;2023-08-06T08:19:13;20.60;99.90
56771;DHT22;42641;59.794;17.616;2023-08-06T08:21:39;20.70;99.90
56771;DHT22;42641;59.794;17.616;2023-08-06T08:24:05;20.80;99.90
56771;DHT22;42641;59.794;17.616;2023-08-06T08:26:32;20.80;99.90
56771;DHT22;42641;59.794;17.616;2023-08-06T08:28:58;20.90;99.90
56771;DHT22;42641;59.794;17.616;2023-08-06T08:31:25;20.90;99.90
56771;DHT22;42641;59.794;17.616;2023-08-06T08:33:51;20.80;99.90
56771;DHT22;42641;59.794;17.616;2023-08-06T08:36:19;20.90;99.90
56771;DHT22;42641;59.794;17.616;2023-08-06T08:38:46;21.00;99.90
56771;DHT22;42641;59.794;17.616;2023-08-06T08:41:12;21.00;99.90
56771;DHT22;42641;59.794;17.616;2023-08-06T08:43:40;21.00;99.90
56771;DHT22;42641;59.794;17.616;2023-08-06T08:46:09;21.10;99.90
56771;DHT22;42641;59.794;17.616;2023-08-06T08:48:38;21.20;99.90
56771;DHT22;42641;59.794;17.616;2023-08-06T08:51:04;21.30;99.90
56771;DHT22;42641;59.794;17.616;2023-08-06T08:53:33;21.30;99.90
56771;DHT22;42641;59.794;17.616;2023-08-06T08:56:00;21.30;99.90
56771;DHT22;42641;59.794;17.616;2023-08-06T08:58:27;21.40;99.90
56771;DHT22;42641;59.794;17.616;2023-08-06T09:00:54;21.40;99.90
56771;DHT22;42641;59.794;17.616;2023-08-06T09:09:16;21.50;99.90
56771;DHT22;42641;59.794;17.616;2023-08-06T09:11:44;21.60;99.90
56771;DHT22;42641;59.794;17.616;2023-08-06T09:14:11;21.70;99.90
56771;DHT22;42641;59.794;17.616;2023-08-06T09:16:38;21.70;99.90
56771;DHT22;42641;59.794;17.616;2023-08-06T09:19:12;21.60;99.90
56771;DHT22;42641;59.794;17.616;2023-08-06T09:21:39;21.80;99.90
56771;DHT22;42641;59.794;17.616;2023-08-06T09:24:12;21.90;99.90
56771;DHT22;42641;59.794;17.616;2023-08-06T09:26:43;21.90;99.90
56771;DHT22;42641;59.794;17.616;2023-08-06T09:29:10;21.90;99.90
56771;DHT22;42641;59.794;17.616;2023-08-06T09:58:03;21.70;99.90
56771;DHT22;42641;59.794;17.616;2023-08-06T10:30:46;21.30;99.90
56771;DHT22;42641;59.794;17.616;2023-08-06T10:36:14;21.10;99.90
56771;DHT22;42641;59.794;17.616;2023-08-06T10:38:45;21.20;99.90
56771;DHT22;42641;59.794;17.616;2023-08-06T10:41:38;21.10;99.90
56771;DHT22;42641;59.794;17.616;2023-08-06T10:44:07;21.10;99.90
56771;DHT22;42641;59.794;17.616;2023-08-06T10:46:35;21.10;99.90
56771;DHT22;42641;59.794;17.616;2023-08-06T10:49:02;21.00;99.90
56771;DHT22;42641;59.794;17.616;2023-08-06T10:51:29;21.00;99.90
56771;DHT22;42641;59.794;17.616;2023-08-06T10:53:56;21.10;99.90
56771;DHT22;42641;59.794;17.616;2023-08-06T10:56:25;21.00;99.90
56771;DHT22;42641;59.794;17.616;2023-08-06T10:58:55;21.10;99.90
56771;DHT22;42641;59.794;17.616;2023-08-06T11:07:29;21.10;99.90
56771;DHT22;42641;59.794;17.616;2023-08-06T11:10:07;21.20;99.90
56771;DHT22;42641;59.794;17.616;2023-08-06T11:12:34;21.20;99.90
56771;DHT22;42641;59.794;17.616;2023-08-06T11:15:02;21.10;99.90
56771;DHT22;42641;59.794;17.616;2023-08-06T11:17:30;20.90;99.90
56771;DHT22;42641;59.794;17.616;2023-08-06T11:20:04;20.90;99.90
56771;DHT22;42641;59.794;17.616;2023-08-06T11:22:32;20.80;99.90
56771;DHT22;42641;59.794;17.616;2023-08-06T11:24:59;20.80;99.90
56771;DHT22;42641;59.794;17.616;2023-08-06T11:27:27;20.90;99.90
56771;DHT22;42641;59.794;17.616;2023-08-06T11:29:55;20.80;99.90
56771;DHT22;42641;59.794;17.616;2023-08-06T11:32:21;20.70;99.90
56771;DHT22;42641;59.794;17.616;2023-08-06T11:34:48;20.70;99.90
56771;DHT22;42641;59.794;17.616;2023-08-06T11:37:14;20.70;99.90
56771;DHT22;42641;59.794;17.616;2023-08-06T11:39:47;20.60;99.90
56771;DHT22;42641;59.794;17.616;2023-08-06T11:42:16;20.50;99.90
56771;DHT22;42641;59.794;17.616;2023-08-06T11:44:42;20.50;99.90
56771;DHT22;42641;59.794;17.616;2023-08-06T11:47:16;20.30;99.90
56771;DHT22;42641;59.794;17.616;2023-08-06T11:54:46;20.00;99.90
56771;DHT22;42641;59.794;17.616;2023-08-06T11:57:13;19.80;99.90
56771;DHT22;42641;59.794;17.616;2023-08-06T11:59:40;19.70;99.90
56771;DHT22;42641;59.794;17.616;2023-08-06T12:02:09;19.70;99.90
56771;DHT22;42641;59.794;17.616;2023-08-06T12:04:59;19.60;99.90
56771;DHT22;42641;59.794;17.616;2023-08-06T12:07:29;19.60;99.90
56771;DHT22;42641;59.794;17.616;2023-08-06T12:09:56;19.40;99.90
56771;DHT22;42641;59.794;17.616;2023-08-06T12:12:23;19.30;99.90
56771;DHT22;42641;59.794;17.616;2023-08-06T12:14:49;19.30;99.90
56771;DHT22;42641;59.794;17.616;2023-08-06T12:17:16;19.20;99.90
56771;DHT22;42641;59.794;17.616;2023-08-06T12:19:45;19.10;99.90
56771;DHT22;42641;59.794;17.616;2023-08-06T12:22:13;19.00;99.90
56771;DHT22;42641;59.794;17.616;2023-08-06T12:24:41;18.90;99.90
56771;DHT22;42641;59.794;17.616;2023-08-06T12:27:08;18.90;99.90
56771;DHT22;42641;59.794;17.616;2023-08-06T12:29:35;18.80;99.90
56771;DHT22;42641;59.794;17.616;2023-08-06T12:32:02;18.70;99.90
56771;DHT22;42641;59.794;17.616;2023-08-06T12:34:29;18.70;99.90
56771;DHT22;42641;59.794;17.616;2023-08-06T12:36:55;18.60;99.90
56771;DHT22;42641;59.794;17.616;2023-08-06T12:39:22;18.50;99.90
56771;DHT22;42641;59.794;17.616;2023-08-06T12:41:49;18.40;99.90
56771;DHT22;42641;59.794;17.616;2023-08-06T12:44:15;18.30;99.90
56771;DHT22;42641;59.794;17.616;2023-08-06T12:46:42;18.20;99.90
56771;DHT22;42641;59.794;17.616;2023-08-06T12:49:08;18.10;99.90
56771;DHT22;42641;59.794;17.616;2023-08-06T12:51:35;17.90;99.90
56771;DHT22;42641;59.794;17.616;2023-08-06T12:54:01;17.90;99.90
56771;DHT22;42641;59.794;17.616;2023-08-06T12:56:28;17.90;99.90
56771;DHT22;42641;59.794;17.616;2023-08-06T12:58:55;17.90;99.90
56771;DHT22;42641;59.794;17.616;2023-08-06T13:01:21;17.90;99.90
56771;DHT22;42641;59.794;17.616;2023-08-06T13:03:48;17.90;99.90
56771;DHT22;42641;59.794;17.616;2023-08-06T13:06:14;17.90;99.90
56771;DHT22;42641;59.794;17.616;2023-08-06T13:08:41;17.80;99.90
56771;DHT22;42641;59.794;17.616;2023-08-06T13:11:07;17.80;99.90
56771;DHT22;42641;59.794;17.616;2023-08-06T13:13:34;17.70;99.90
56771;DHT22;42641;59.794;17.616;2023-08-06T13:16:00;17.60;99.90
56771;DHT22;42641;59.794;17.616;2023-08-06T13:18:27;17.60;99.90
56771;DHT22;42641;59.794;17.616;2023-08-06T13:20:55;17.60;99.90
56771;DHT22;42641;59.794;17.616;2023-08-06T13:23:21;17.70;99.90
56771;DHT22;42641;59.794;17.616;2023-08-06T13:25:48;17.60;99.90
56771;DHT22;42641;59.794;17.616;2023-08-06T13:28:14;17.60;99.90
56771;DHT22;42641;59.794;17.616;2023-08-06T13:30:41;17.60;99.90
56771;DHT22;42641;59.794;17.616;2023-08-06T13:33:09;17.50;99.90
56771;DHT22;42641;59.794;17.616;2023-08-06T13:35:35;17.40;99.90
56771;DHT22;42641;59.794;17.616;2023-08-06T13:38:02;17.40;99.90
56771;DHT22;42641;59.794;17.616;2023-08-06T13:40:33;17.40;99.90
56771;DHT22;42641;59.794;17.616;2023-08-06T13:43:00;17.40;99.90
56771;DHT22;42641;59.794;17.616;2023-08-06T13:45:27;17.40;99.90
56771;DHT22;42641;59.794;17.616;2023-08-06T13:47:55;17.40;99.90
56771;DHT22;42641;59.794;17.616;2023-08-06T13:50:21;17.30;99.90
56771;DHT22;42641;59.794;17.616;2023-08-06T13:52:48;17.30;99.90
56771;DHT22;42641;59.794;17.616;2023-08-06T13:55:14;17.10;99.90
56771;DHT22;42641;59.794;17.616;2023-08-06T13:57:42;17.10;99.90
56771;DHT22;42641;59.794;17.616;2023-08-06T14:00:09;17.10;99.90
56771;DHT22;42641;59.794;17.616;2023-08-06T14:02:42;17.00;99.90
56771;DHT22;42641;59.794;17.616;2023-08-06T14:05:10;17.00;99.90
56771;DHT22;42641;59.794;17.616;2023-08-06T14:07:37;16.90;99.90
56771;DHT22;42641;59.794;17.616;2023-08-06T14:10:03;16.90;99.90
56771;DHT22;42641;59.794;17.616;2023-08-06T14:12:31;17.00;99.90
56771;DHT22;42641;59.794;17.616;2023-08-06T14:14:57;16.90;99.90
56771;DHT22;42641;59.794;17.616;2023-08-06T14:17:25;16.90;99.90
56771;DHT22;42641;59.794;17.616;2023-08-06T14:19:51;16.80;99.90
56771;DHT22;42641;59.794;17.616;2023-08-06T14:22:17;16.90;99.90
56771;DHT22;42641;59.794;17.616;2023-08-06T14:24:44;16.80;99.90
56771;DHT22;42641;59.794;17.616;2023-08-06T14:27:10;16.80;99.90
56771;DHT22;42641;59.794;17.616;2023-08-06T14:29:37;16.70;99.90
56771;DHT22;42641;59.794;17.616;2023-08-06T14:32:03;16.80;99.90
56771;DHT22;42641;59.794;17.616;2023-08-06T14:34:30;16.70;99.90
56771;DHT22;42641;59.794;17.616;2023-08-06T14:36:57;16.70;99.90
56771;DHT22;42641;59.794;17.616;2023-08-06T14:39:23;16.60;99.90
56771;DHT22;42641;59.794;17.616;2023-08-06T14:41:50;16.60;99.90
56771;DHT22;42641;59.794;17.616;2023-08-06T14:44:16;16.60;99.90
56771;DHT22;42641;59.794;17.616;2023-08-06T14:46:43;16.60;99.90
56771;DHT22;42641;59.794;17.616;2023-08-06T14:49:09;16.60;99.90
56771;DHT22;42641;59.794;17.616;2023-08-06T14:51:35;16.60;99.90
56771;DHT22;42641;59.794;17.616;2023-08-06T14:54:02;16.70;99.90
56771;DHT22;42641;59.794;17.616;2023-08-06T14:56:28;16.70;99.90
56771;DHT22;42641;59.794;17.616;2023-08-06T14:58:55;16.70;99.90
56771;DHT22;42641;59.794;17.616;2023-08-06T15:01:22;16.70;99.90
56771;DHT22;42641;59.794;17.616;2023-08-06T15:03:48;16.70;99.90
56771;DHT22;42641;59.794;17.616;2023-08-06T15:06:15;16.60;99.90
56771;DHT22;42641;59.794;17.616;2023-08-06T15:08:42;16.70;99.90
56771;DHT22;42641;59.794;17.616;2023-08-06T15:11:13;16.70;99.90
56771;DHT22;42641;59.794;17.616;2023-08-06T15:13:39;16.70;99.90
56771;DHT22;42641;59.794;17.616;2023-08-06T15:16:06;16.70;99.90
56771;DHT22;42641;59.794;17.616;2023-08-06T15:18:32;16.60;99.90
56771;DHT22;42641;59.794;17.616;2023-08-06T15:20:59;16.60;99.90
56771;DHT22;42641;59.794;17.616;2023-08-06T15:23:25;16.60;99.90
56771;DHT22;42641;59.794;17.616;2023-08-06T15:25:52;16.70;99.90
56771;DHT22;42641;59.794;17.616;2023-08-06T15:28:18;16.70;99.90
56771;DHT22;42641;59.794;17.616;2023-08-06T15:30:49;16.80;99.90
56771;DHT22;42641;59.794;17.616;2023-08-06T15:33:17;16.80;99.90
56771;DHT22;42641;59.794;17.616;2023-08-06T15:35:43;16.80;99.90
56771;DHT22;42641;59.794;17.616;2023-08-06T15:38:10;16.80;99.90
56771;DHT22;42641;59.794;17.616;2023-08-06T15:40:36;16.80;99.90
56771;DHT22;42641;59.794;17.616;2023-08-06T15:43:03;16.80;99.90
56771;DHT22;42641;59.794;17.616;2023-08-06T15:45:29;16.90;99.90
56771;DHT22;42641;59.794;17.616;2023-08-06T15:47:56;16.90;99.90
56771;DHT22;42641;59.794;17.616;2023-08-06T15:50:23;17.00;99.90
56771;DHT22;42641;59.794;17.616;2023-08-06T15:52:50;16.90;99.90
56771;DHT22;42641;59.794;17.616;2023-08-06T15:55:16;16.90;99.90
56771;DHT22;42641;59.794;17.616;2023-08-06T15:57:43;16.90;99.90
56771;DHT22;42641;59.794;17.616;2023-08-06T16:00:10;16.90;99.90
56771;DHT22;42641;59.794;17.616;2023-08-06T16:02:41;16.90;99.90
56771;DHT22;42641;59.794;17.616;2023-08-06T16:05:08;16.90;99.90
56771;DHT22;42641;59.794;17.616;2023-08-06T16:07:34;16.90;99.90
56771;DHT22;42641;59.794;17.616;2023-08-06T16:10:01;16.90;99.90
56771;DHT22;42641;59.794;17.616;2023-08-06T16:12:28;16.90;99.90
56771;DHT22;42641;59.794;17.616;2023-08-06T16:14:55;16.90;99.90
56771;DHT22;42641;59.794;17.616;2023-08-06T16:17:21;16.90;99.90
56771;DHT22;42641;59.794;17.616;2023-08-06T16:19:49;17.00;99.90
56771;DHT22;42641;59.794;17.616;2023-08-06T16:22:17;17.00;99.90
56771;DHT22;42641;59.794;17.616;2023-08-06T16:24:44;16.90;99.90
56771;DHT22;42641;59.794;17.616;2023-08-06T16:27:10;16.90;99.90
56771;DHT22;42641;59.794;17.616;2023-08-06T16:29:37;16.90;99.90
56771;DHT22;42641;59.794;17.616;2023-08-06T16:32:03;16.90;99.90
56771;DHT22;42641;59.794;17.616;2023-08-06T16:34:30;16.90;99.90
56771;DHT22;42641;59.794;17.616;2023-08-06T16:36:57;17.00;99.90